createdAt,value
2022-11-18T00:01:25.697Z,10.64
2022-11-18T00:16:27.162Z,10.05
2022-11-18T00:31:28.742Z,11.34
2022-11-18T00:46:30.228Z,11.14
2022-11-18T01:01:32.212Z,10.28
2022-11-18T01:16:33.757Z,10.97
2022-11-18T01:31:35.282Z,10.04
2022-11-18T01:46:36.787Z,9.67
2022-11-18T02:01:38.394Z,10.05
2022-11-18T02:16:42.705Z,9.54
2022-11-18T02:31:44.143Z,9.42
2022-11-18T02:46:48.166Z,9.56
2022-11-18T03:01:49.807Z,9.96
2022-11-18T03:16:51.306Z,9.81
2022-11-18T03:32:02.531Z,10.10
2022-11-18T03:47:09.614Z,9.98
2022-11-18T04:02:13.485Z,9.14
2022-11-18T04:17:16.518Z,9.70
2022-11-18T04:32:18.022Z,9.74
2022-11-18T04:47:19.643Z,10.10
2022-11-18T05:02:21.257Z,9.17
2022-11-18T05:17:22.741Z,9.34
2022-11-18T05:32:24.240Z,8.39
2022-11-18T05:47:26.420Z,8.77
2022-11-18T06:02:30.784Z,10.10
2022-11-18T06:17:40.035Z,11.76
2022-11-18T06:32:41.552Z,10.96
2022-11-18T06:47:43.030Z,10.20
2022-11-18T07:02:44.508Z,10.88
2022-11-18T07:17:45.978Z,12.43
2022-11-18T07:32:47.503Z,10.97
2022-11-18T07:47:48.974Z,12.57
2022-11-18T08:02:51.170Z,11.35
2022-11-18T08:17:52.734Z,11.87
2022-11-18T08:32:54.226Z,13.18
2022-11-18T08:47:55.727Z,12.00
2022-11-18T09:02:57.188Z,13.81
2022-11-18T09:17:58.783Z,14.36
2022-11-18T09:33:00.320Z,15.27
2022-11-18T09:48:03.399Z,15.09
2022-11-18T10:03:10.182Z,15.65
2022-11-18T10:33:59.744Z,17.21
2022-11-18T10:49:10.308Z,17.99
2022-11-18T11:04:12.245Z,16.65
2022-11-18T11:19:14.698Z,17.84
2022-11-18T11:34:19.263Z,17.19
2022-11-18T11:49:34.167Z,17.10
2022-11-18T12:04:54.144Z,16.76
2022-11-18T12:19:55.644Z,16.82
2022-11-18T12:35:22.176Z,16.76
2022-11-18T12:50:43.641Z,18.01
2022-11-18T13:05:45.213Z,18.30
2022-11-18T13:20:57.768Z,17.84
2022-11-18T13:36:00.499Z,18.09
2022-11-18T13:51:02.589Z,17.93
2022-11-18T14:06:04.177Z,18.08
2022-11-18T14:21:05.977Z,18.11
2022-11-18T14:36:10.636Z,18.12
2022-11-18T14:51:15.855Z,18.02
2022-11-18T15:06:18.229Z,16.77
2022-11-18T15:21:20.113Z,15.70
2022-11-18T15:36:22.790Z,16.20
2022-11-18T15:51:25.205Z,16.76
2022-11-18T16:06:27.200Z,15.95
2022-11-18T16:21:29.511Z,17.16
2022-11-18T16:36:31.244Z,16.56
2022-11-18T16:51:34.061Z,16.46
2022-11-18T17:06:35.664Z,16.17
2022-11-18T17:21:37.251Z,16.69
2022-11-18T17:36:38.867Z,16.72
2022-11-18T17:51:40.758Z,16.87
2022-11-18T18:06:42.347Z,16.81
2022-11-18T18:21:44.241Z,17.06
2022-11-18T18:36:45.758Z,17.10
2022-11-18T18:51:50.844Z,17.22
2022-11-18T19:06:58.989Z,17.28
2022-11-18T19:22:01.492Z,17.43
2022-11-18T19:37:03.008Z,17.33
2022-11-18T19:52:04.534Z,17.28
2022-11-18T20:07:06.143Z,17.50
2022-11-18T20:22:07.677Z,17.27
2022-11-18T20:37:09.233Z,16.37
2022-11-18T20:52:10.684Z,16.38
2022-11-18T21:07:12.704Z,16.25
2022-11-18T21:22:14.231Z,16.06
2022-11-18T21:37:15.718Z,15.91
2022-11-18T21:52:17.171Z,16.86
2022-11-18T22:16:16.807Z,16.68
2022-11-18T22:31:20.513Z,16.83
2022-11-18T22:46:22.013Z,14.84
2022-11-18T23:01:23.751Z,13.84
2022-11-18T23:16:25.378Z,14.57
2022-11-18T23:31:27.404Z,13.91
2022-11-18T23:46:28.887Z,14.12
